createdAt,value
2022-12-13T00:02:15.847Z,59.50
2022-12-13T00:04:46.156Z,59.30
2022-12-13T00:07:16.409Z,59.30
2022-12-13T00:09:46.676Z,59.00
2022-12-13T00:12:17.043Z,59.10
2022-12-13T00:14:47.397Z,59.10
2022-12-13T00:17:17.727Z,58.90
2022-12-13T00:19:49.989Z,59.00
2022-12-13T00:22:20.177Z,58.80
2022-12-13T00:24:50.379Z,58.90
2022-12-13T00:27:20.630Z,58.90
2022-12-13T00:29:50.894Z,58.80
2022-12-13T00:32:21.343Z,58.90
2022-12-13T00:34:51.636Z,58.70
2022-12-13T00:37:21.886Z,58.70
2022-12-13T00:39:52.171Z,58.50
2022-12-13T00:42:22.395Z,59.00
2022-12-13T00:44:52.723Z,58.70
2022-12-13T00:47:24.145Z,58.70
2022-12-13T00:49:54.411Z,58.60
2022-12-13T00:52:24.794Z,58.70
2022-12-13T00:54:55.105Z,58.60
2022-12-13T00:57:25.454Z,58.70
2022-12-13T00:59:55.800Z,58.50
2022-12-13T01:02:26.040Z,58.60
2022-12-13T01:04:56.342Z,58.40
2022-12-13T01:07:26.631Z,58.50
2022-12-13T01:09:56.856Z,58.40
2022-12-13T01:12:27.908Z,58.40
2022-12-13T01:14:58.414Z,58.30
2022-12-13T01:17:29.321Z,58.30
2022-12-13T01:20:02.851Z,58.30
2022-12-13T01:22:33.055Z,58.30
2022-12-13T01:25:03.266Z,58.30
2022-12-13T01:27:33.549Z,58.30
2022-12-13T01:30:03.856Z,58.30
2022-12-13T01:32:34.087Z,58.30
2022-12-13T01:35:04.382Z,58.30
2022-12-13T01:37:37.356Z,58.30
2022-12-13T01:40:15.727Z,58.30
2022-12-13T01:42:46.695Z,58.20
2022-12-13T01:45:27.787Z,58.20
2022-12-13T01:48:21.604Z,58.20
2022-12-13T01:50:55.389Z,58.10
2022-12-13T01:53:29.732Z,58.10
2022-12-13T01:56:14.556Z,58.10
2022-12-13T01:58:45.194Z,58.20
2022-12-13T02:01:15.524Z,58.20
2022-12-13T02:03:46.765Z,58.00
2022-12-13T02:06:30.520Z,58.00
2022-12-13T02:09:01.193Z,58.10
2022-12-13T02:11:32.183Z,58.00
2022-12-13T02:14:02.730Z,57.90
2022-12-13T02:16:59.921Z,58.00
2022-12-13T02:19:48.271Z,58.00
2022-12-13T02:22:35.160Z,57.70
2022-12-13T02:25:08.628Z,57.70
2022-12-13T02:28:02.650Z,58.20
2022-12-13T02:30:47.330Z,57.40
2022-12-13T02:33:26.403Z,57.60
2022-12-13T02:36:11.172Z,57.70
2022-12-13T02:39:30.570Z,57.60
2022-12-13T02:42:22.038Z,57.30
2022-12-13T02:45:15.738Z,57.30
2022-12-13T02:47:51.430Z,57.30
2022-12-13T02:50:22.806Z,57.20
2022-12-13T02:52:55.094Z,57.30
2022-12-13T02:55:28.489Z,57.10
2022-12-13T02:57:58.781Z,57.10
2022-12-13T03:00:50.762Z,57.00
2022-12-13T03:03:33.955Z,56.60
2022-12-13T03:06:25.563Z,56.90
2022-12-13T03:09:32.389Z,57.00
2022-12-13T03:12:51.095Z,56.90
2022-12-13T03:15:45.283Z,56.80
2022-12-13T03:18:22.306Z,56.70
2022-12-13T03:21:10.692Z,56.60
2022-12-13T03:23:41.476Z,55.70
2022-12-13T03:26:13.012Z,56.00
2022-12-13T03:28:45.995Z,56.10
2022-12-13T03:31:18.920Z,56.20
2022-12-13T03:33:49.354Z,56.20
2022-12-13T03:36:20.678Z,56.20
2022-12-13T03:38:54.097Z,56.20
2022-12-13T03:41:33.082Z,56.20
2022-12-13T03:44:07.941Z,56.20
2022-12-13T03:46:38.573Z,56.20
2022-12-13T03:49:11.349Z,56.20
2022-12-13T03:51:46.988Z,56.20
2022-12-13T03:54:19.439Z,56.10
2022-12-13T03:56:49.663Z,56.00
2022-12-13T03:59:19.996Z,55.90
2022-12-13T04:01:50.270Z,55.90
2022-12-13T04:04:20.524Z,55.90
2022-12-13T04:06:50.711Z,55.70
2022-12-13T04:09:20.870Z,55.70
2022-12-13T04:12:09.863Z,55.80
2022-12-13T04:14:40.284Z,55.50
2022-12-13T04:17:10.649Z,55.50
2022-12-13T04:19:41.120Z,55.30
2022-12-13T04:22:11.623Z,55.40
2022-12-13T04:24:42.028Z,55.60
2022-12-13T04:27:12.537Z,55.50
2022-12-13T04:29:42.830Z,55.60
2022-12-13T04:32:26.708Z,55.60
2022-12-13T04:35:00.823Z,55.60
2022-12-13T04:37:32.955Z,55.80
2022-12-13T04:40:03.234Z,55.80
2022-12-13T04:42:33.499Z,55.70
2022-12-13T04:45:03.850Z,55.60
2022-12-13T04:47:34.075Z,55.60
2022-12-13T04:50:04.297Z,55.60
2022-12-13T04:52:34.608Z,55.60
2022-12-13T04:55:04.807Z,55.50
2022-12-13T04:57:35.139Z,55.30
2022-12-13T05:00:07.006Z,55.00
2022-12-13T05:02:37.235Z,54.90
2022-12-13T05:05:07.685Z,54.80
2022-12-13T05:07:42.279Z,54.70
2022-12-13T05:10:33.858Z,54.60
2022-12-13T05:13:06.731Z,54.70
2022-12-13T05:15:37.527Z,54.80
2022-12-13T05:18:11.015Z,54.70
2022-12-13T05:20:42.347Z,54.90
2022-12-13T05:23:12.737Z,54.80
2022-12-13T05:25:43.249Z,54.80
2022-12-13T05:28:27.678Z,54.90
2022-12-13T05:31:02.280Z,54.80
2022-12-13T05:33:32.445Z,54.80
2022-12-13T05:36:02.650Z,54.80
2022-12-13T05:38:33.223Z,54.60
2022-12-13T05:41:03.722Z,54.60
2022-12-13T05:43:42.192Z,54.30
2022-12-13T05:46:17.333Z,53.80
2022-12-13T05:48:47.863Z,53.70
2022-12-13T05:51:18.131Z,51.90
2022-12-13T05:53:53.246Z,51.90
2022-12-13T05:56:26.556Z,51.70
2022-12-13T05:58:56.804Z,52.10
2022-12-13T06:01:27.006Z,52.10
2022-12-13T06:03:57.266Z,51.80
2022-12-13T06:06:27.644Z,51.40
2022-12-13T06:08:57.928Z,52.10
2022-12-13T06:11:31.988Z,52.90
2022-12-13T06:14:02.767Z,51.50
2022-12-13T06:16:32.988Z,51.20
2022-12-13T06:19:04.557Z,50.70
2022-12-13T06:21:43.579Z,50.70
2022-12-13T06:24:17.477Z,51.00
2022-12-13T06:26:48.600Z,51.10
2022-12-13T06:29:24.494Z,51.20
2022-12-13T06:32:01.035Z,51.70
2022-12-13T06:34:36.167Z,51.20
2022-12-13T06:37:09.477Z,50.60
2022-12-13T06:39:40.051Z,50.30
2022-12-13T06:42:22.097Z,50.60
2022-12-13T06:44:56.154Z,50.30
2022-12-13T06:47:31.372Z,50.00
2022-12-13T06:50:05.103Z,50.30
2022-12-13T06:52:36.829Z,50.60
2022-12-13T06:55:07.541Z,50.90
2022-12-13T06:57:38.015Z,50.80
2022-12-13T07:00:12.551Z,50.10
2022-12-13T07:02:43.006Z,50.90
2022-12-13T07:05:14.205Z,51.40
2022-12-13T07:07:44.523Z,51.80
2022-12-13T07:10:21.741Z,51.80
2022-12-13T07:12:53.043Z,51.90
2022-12-13T07:15:23.268Z,52.10
2022-12-13T07:17:54.229Z,52.40
2022-12-13T07:20:25.194Z,52.50
2022-12-13T07:22:59.263Z,52.60
2022-12-13T07:25:31.169Z,52.70
2022-12-13T07:28:06.855Z,52.70
2022-12-13T07:30:41.984Z,52.80
2022-12-13T07:33:13.181Z,52.90
2022-12-13T07:35:55.445Z,53.00
2022-12-13T07:38:35.597Z,53.00
2022-12-13T07:41:07.283Z,53.10
2022-12-13T07:43:38.281Z,53.10
2022-12-13T07:46:09.970Z,53.10
2022-12-13T07:48:40.337Z,53.10
2022-12-13T07:51:13.432Z,53.10
2022-12-13T07:53:44.305Z,53.10
2022-12-13T07:56:17.867Z,53.00
2022-12-13T07:58:49.050Z,53.10
2022-12-13T08:01:20.149Z,53.10
2022-12-13T08:03:53.563Z,53.00
2022-12-13T08:06:23.761Z,53.10
2022-12-13T08:09:00.812Z,53.10
2022-12-13T08:11:31.070Z,53.10
2022-12-13T08:14:01.397Z,53.10
2022-12-13T08:16:32.112Z,53.30
2022-12-13T08:19:04.534Z,53.30
2022-12-13T08:22:01.617Z,53.90
2022-12-13T08:24:33.488Z,53.40
2022-12-13T08:27:05.471Z,53.60
2022-12-13T08:29:37.094Z,53.80
2022-12-13T08:32:13.451Z,53.90
2022-12-13T08:34:44.454Z,54.00
2022-12-13T08:37:15.603Z,54.20
2022-12-13T08:39:48.798Z,54.20
2022-12-13T08:42:20.554Z,54.20
2022-12-13T08:44:56.177Z,54.20
2022-12-13T08:47:29.229Z,54.20
2022-12-13T08:50:04.527Z,54.20
2022-12-13T08:52:39.770Z,54.20
2022-12-13T08:55:14.006Z,54.30
2022-12-13T08:57:46.003Z,54.30
2022-12-13T09:00:24.212Z,54.40
2022-12-13T09:02:59.661Z,54.40
2022-12-13T09:05:33.561Z,54.30
2022-12-13T09:08:24.105Z,54.40
2022-12-13T09:11:10.810Z,54.40
2022-12-13T09:13:51.768Z,54.40
2022-12-13T09:16:27.545Z,54.50
2022-12-13T09:19:25.193Z,54.50
2022-12-13T09:22:02.860Z,54.50
2022-12-13T09:24:36.747Z,55.20
2022-12-13T09:27:28.008Z,54.60
2022-12-13T09:29:59.128Z,54.50
2022-12-13T09:32:30.078Z,54.50
2022-12-13T09:35:00.306Z,54.60
2022-12-13T09:37:31.993Z,54.60
2022-12-13T09:40:15.977Z,54.60
2022-12-13T09:43:21.665Z,54.70
2022-12-13T09:45:52.317Z,54.70
2022-12-13T09:48:34.990Z,54.80
2022-12-13T09:51:17.306Z,54.80
2022-12-13T09:53:57.597Z,54.80
2022-12-13T09:56:28.521Z,54.80
2022-12-13T09:59:00.437Z,54.80
2022-12-13T10:01:30.884Z,54.90
2022-12-13T10:04:03.501Z,54.90
2022-12-13T10:06:36.336Z,54.90
2022-12-13T10:09:12.970Z,54.90
2022-12-13T10:11:57.488Z,55.00
2022-12-13T10:14:42.062Z,55.00
2022-12-13T10:17:21.132Z,55.00
2022-12-13T10:19:53.305Z,55.10
2022-12-13T10:22:27.424Z,55.10
2022-12-13T10:25:07.478Z,55.10
2022-12-13T10:27:46.235Z,55.10
2022-12-13T10:30:28.354Z,55.20
2022-12-13T10:33:02.079Z,55.20
2022-12-13T10:35:44.026Z,55.30
2022-12-13T10:38:31.923Z,55.20
2022-12-13T10:41:02.674Z,55.30
2022-12-13T10:43:34.133Z,55.40
2022-12-13T10:46:05.769Z,55.40
2022-12-13T10:48:39.428Z,55.40
2022-12-13T10:51:13.287Z,55.30
2022-12-13T10:53:49.190Z,55.40
2022-12-13T10:56:23.115Z,55.40
2022-12-13T10:59:34.928Z,55.40
2022-12-13T11:02:34.728Z,55.30
2022-12-13T11:05:41.414Z,55.40
2022-12-13T11:08:33.970Z,55.40
2022-12-13T11:11:09.034Z,55.40
2022-12-13T11:13:44.951Z,55.50
2022-12-13T11:16:29.899Z,55.70
2022-12-13T11:19:04.798Z,55.70
2022-12-13T11:21:38.992Z,55.70
2022-12-13T11:24:11.191Z,55.70
2022-12-13T11:26:44.547Z,55.70
2022-12-13T11:29:17.875Z,55.80
2022-12-13T11:32:23.083Z,55.90
2022-12-13T11:34:56.923Z,55.90
2022-12-13T11:37:42.486Z,56.00
2022-12-13T11:40:29.581Z,56.00
2022-12-13T11:43:20.787Z,56.10
2022-12-13T11:46:00.085Z,56.10
2022-12-13T11:48:36.436Z,56.10
2022-12-13T11:51:10.714Z,56.10
2022-12-13T11:54:03.212Z,56.10
2022-12-13T11:56:56.279Z,56.10
2022-12-13T11:59:46.785Z,56.10
2022-12-13T12:02:46.025Z,56.20
2022-12-13T12:05:45.073Z,56.10
2022-12-13T12:08:36.444Z,56.10
2022-12-13T12:11:17.879Z,56.20
2022-12-13T12:13:59.619Z,56.20
2022-12-13T12:16:53.938Z,56.20
2022-12-13T12:19:38.723Z,56.20
2022-12-13T12:22:16.733Z,56.20
2022-12-13T12:25:01.923Z,56.20
2022-12-13T12:27:56.510Z,56.20
2022-12-13T12:30:48.070Z,56.20
2022-12-13T12:33:36.288Z,56.30
2022-12-13T12:36:51.418Z,56.30
2022-12-13T12:39:42.383Z,56.30
2022-12-13T12:42:36.625Z,56.40
2022-12-13T12:45:55.335Z,56.40
2022-12-13T12:49:01.136Z,56.50
2022-12-13T12:51:35.582Z,56.50
2022-12-13T12:54:20.602Z,56.50
2022-12-13T12:57:18.808Z,56.50
2022-12-13T13:00:17.214Z,56.50
2022-12-13T13:03:18.720Z,56.40
2022-12-13T13:06:02.113Z,56.50
2022-12-13T13:08:54.975Z,56.60
2022-12-13T13:11:42.866Z,56.60
2022-12-13T13:14:36.529Z,56.70
2022-12-13T13:17:25.175Z,56.60
2022-12-13T13:20:17.978Z,56.60
2022-12-13T13:23:04.015Z,56.60
2022-12-13T13:25:54.312Z,56.70
2022-12-13T13:28:29.286Z,57.30
2022-12-13T13:31:17.678Z,56.70
2022-12-13T13:33:54.100Z,56.70
2022-12-13T13:36:46.382Z,56.70
2022-12-13T13:39:55.693Z,56.70
2022-12-13T13:42:26.695Z,56.70
2022-12-13T13:45:03.413Z,56.90
2022-12-13T13:47:42.074Z,56.80
2022-12-13T13:50:30.977Z,56.80
2022-12-13T13:53:31.284Z,56.80
2022-12-13T13:56:19.743Z,56.80
2022-12-13T13:58:55.764Z,56.80
2022-12-13T14:01:56.948Z,56.90
2022-12-13T14:04:55.923Z,56.80
2022-12-13T14:07:47.312Z,56.90
2022-12-13T14:10:29.326Z,56.90
2022-12-13T14:13:20.811Z,57.50
2022-12-13T14:16:28.398Z,56.90
2022-12-13T14:19:02.017Z,56.90
2022-12-13T14:22:08.396Z,56.90
2022-12-13T14:24:54.043Z,56.80
2022-12-13T14:27:42.444Z,56.90
2022-12-13T14:30:28.677Z,57.00
2022-12-13T14:33:00.085Z,56.90
2022-12-13T14:35:33.361Z,57.00
2022-12-13T14:38:22.887Z,56.90
2022-12-13T14:40:58.456Z,56.90
2022-12-13T14:43:34.272Z,57.00
2022-12-13T14:46:09.748Z,57.00
2022-12-13T14:48:52.773Z,57.00
2022-12-13T14:51:38.080Z,57.00
2022-12-13T14:54:10.717Z,56.90
2022-12-13T14:57:03.640Z,57.00
2022-12-13T14:59:35.352Z,57.00
2022-12-13T15:02:07.592Z,57.10
2022-12-13T15:04:39.550Z,57.00
2022-12-13T15:07:28.900Z,57.00
2022-12-13T15:10:05.765Z,57.00
2022-12-13T15:12:36.085Z,57.10
2022-12-13T15:15:22.993Z,57.10
2022-12-13T15:18:18.992Z,57.10
2022-12-13T15:20:51.594Z,57.70
2022-12-13T15:23:48.648Z,57.10
2022-12-13T15:26:30.073Z,57.10
2022-12-13T15:29:10.570Z,57.10
2022-12-13T15:31:42.509Z,57.10
2022-12-13T15:34:31.282Z,57.10
2022-12-13T15:37:08.963Z,57.10
2022-12-13T15:40:08.053Z,57.10
2022-12-13T15:42:41.686Z,57.20
2022-12-13T15:45:36.364Z,57.20
2022-12-13T15:48:07.674Z,57.10
2022-12-13T15:50:47.209Z,57.10
2022-12-13T15:53:29.090Z,57.10
2022-12-13T15:56:02.257Z,57.10
2022-12-13T15:58:38.486Z,57.10
2022-12-13T16:01:09.002Z,57.20
2022-12-13T16:03:48.875Z,57.20
2022-12-13T16:06:24.750Z,57.10
2022-12-13T16:09:00.637Z,57.20
2022-12-13T16:11:35.628Z,57.20
2022-12-13T16:14:33.225Z,57.20
2022-12-13T16:17:08.090Z,57.20
2022-12-13T16:19:39.033Z,57.20
2022-12-13T16:22:09.791Z,57.20
2022-12-13T16:24:40.518Z,57.20
2022-12-13T16:27:12.469Z,57.20
2022-12-13T16:29:42.980Z,57.20
2022-12-13T16:32:13.863Z,57.20
2022-12-13T16:34:44.123Z,57.30
2022-12-13T16:37:25.615Z,57.30
2022-12-13T16:39:57.577Z,57.30
2022-12-13T16:42:29.216Z,57.30
2022-12-13T16:45:32.493Z,57.30
2022-12-13T16:47:51.570Z,57.30
2022-12-13T16:50:23.163Z,57.30
2022-12-13T16:52:53.675Z,57.30
2022-12-13T16:55:23.911Z,57.30
2022-12-13T16:58:25.023Z,57.30
2022-12-13T17:00:59.188Z,57.30
2022-12-13T17:03:30.409Z,57.40
2022-12-13T17:06:00.649Z,57.40
2022-12-13T17:08:35.700Z,57.40
2022-12-13T17:11:06.788Z,57.40
2022-12-13T17:13:37.557Z,57.40
2022-12-13T17:16:08.396Z,57.50
2022-12-13T17:18:40.772Z,57.50
2022-12-13T17:21:12.666Z,57.40
2022-12-13T17:23:42.954Z,57.50
2022-12-13T17:26:14.349Z,57.50
2022-12-13T17:28:44.740Z,57.50
2022-12-13T17:31:15.519Z,57.50
2022-12-13T17:33:46.362Z,57.50
2022-12-13T17:36:17.932Z,57.60
2022-12-13T17:38:49.952Z,57.60
2022-12-13T17:41:20.520Z,57.60
2022-12-13T17:43:51.053Z,57.60
2022-12-13T17:46:22.111Z,58.20
2022-12-13T17:48:53.508Z,57.60
2022-12-13T17:51:23.774Z,57.60
2022-12-13T17:53:54.537Z,57.60
2022-12-13T17:56:25.016Z,57.60
2022-12-13T17:58:55.285Z,57.60
2022-12-13T18:01:27.216Z,57.60
2022-12-13T18:03:59.528Z,57.60
2022-12-13T18:06:30.066Z,57.60
2022-12-13T18:09:00.665Z,57.60
2022-12-13T18:11:33.750Z,57.60
2022-12-13T18:14:06.518Z,57.60
2022-12-13T18:16:39.109Z,57.60
2022-12-13T18:19:13.747Z,57.60
2022-12-13T18:21:46.945Z,57.60
2022-12-13T18:24:17.277Z,57.70
2022-12-13T18:26:47.572Z,57.70
2022-12-13T18:29:17.862Z,57.70
2022-12-13T18:31:48.444Z,57.80
2022-12-13T18:34:18.829Z,57.80
2022-12-13T18:36:49.044Z,57.80
2022-12-13T18:39:19.451Z,57.70
2022-12-13T18:41:49.779Z,57.80
2022-12-13T18:44:20.683Z,57.80
2022-12-13T18:46:52.362Z,57.80
2022-12-13T18:49:22.729Z,57.80
2022-12-13T18:51:53.188Z,57.80
2022-12-13T18:54:23.512Z,57.80
2022-12-13T18:56:53.698Z,57.80
2022-12-13T18:59:23.881Z,57.90
2022-12-13T19:01:54.361Z,58.00
2022-12-13T19:04:24.903Z,58.00
2022-12-13T19:06:55.404Z,58.00
2022-12-13T19:09:26.424Z,58.10
2022-12-13T19:11:58.644Z,58.00
2022-12-13T19:14:30.247Z,58.00
2022-12-13T19:17:00.643Z,58.10
2022-12-13T19:19:31.046Z,58.10
2022-12-13T19:22:01.234Z,58.10
2022-12-13T19:24:31.448Z,58.10
2022-12-13T19:27:01.726Z,58.10
2022-12-13T19:29:32.297Z,58.10
2022-12-13T19:32:02.517Z,58.20
2022-12-13T19:34:32.693Z,58.20
2022-12-13T19:37:06.541Z,58.20
2022-12-13T19:39:37.080Z,58.20
2022-12-13T19:42:07.462Z,58.20
2022-12-13T19:44:37.729Z,58.20
2022-12-13T19:47:08.659Z,58.30
2022-12-13T19:49:39.031Z,58.20
2022-12-13T19:52:09.303Z,58.10
2022-12-13T19:54:40.039Z,58.20
2022-12-13T19:57:10.561Z,58.30
2022-12-13T19:59:40.776Z,58.10
2022-12-13T20:02:14.980Z,58.10
2022-12-13T20:04:48.630Z,58.30
2022-12-13T20:07:18.867Z,58.30
2022-12-13T20:09:49.069Z,58.10
2022-12-13T20:12:19.319Z,58.20
2022-12-13T20:14:49.549Z,58.30
2022-12-13T20:17:19.740Z,58.20
2022-12-13T20:19:49.945Z,58.00
2022-12-13T20:22:20.194Z,58.40
2022-12-13T20:24:50.381Z,58.40
2022-12-13T20:27:21.596Z,58.70
2022-12-13T20:29:52.021Z,58.40
2022-12-13T20:32:23.605Z,58.50
2022-12-13T20:34:55.141Z,58.60
2022-12-13T20:37:25.641Z,58.70
2022-12-13T20:39:55.845Z,58.90
2022-12-13T20:42:26.330Z,58.80
2022-12-13T20:44:56.614Z,58.60
2022-12-13T20:47:26.994Z,58.80
2022-12-13T20:49:57.222Z,58.90
2022-12-13T20:52:27.416Z,58.80
2022-12-13T20:54:57.690Z,58.90
2022-12-13T20:57:27.953Z,58.80
2022-12-13T20:59:58.117Z,58.50
2022-12-13T21:02:29.144Z,58.30
2022-12-13T21:04:59.593Z,58.20
2022-12-13T21:07:49.573Z,58.20
2022-12-13T21:10:19.984Z,58.10
2022-12-13T21:12:50.296Z,58.20
2022-12-13T21:15:20.669Z,58.10
2022-12-13T21:17:50.896Z,58.30
2022-12-13T21:20:21.288Z,58.10
2022-12-13T21:22:51.569Z,58.00
2022-12-13T21:25:21.894Z,58.00
2022-12-13T21:27:52.059Z,57.90
2022-12-13T21:30:27.305Z,57.80
2022-12-13T21:32:57.576Z,57.80
2022-12-13T21:35:28.000Z,57.80
2022-12-13T21:38:03.630Z,57.70
2022-12-13T21:40:35.827Z,57.70
2022-12-13T21:43:06.257Z,57.50
2022-12-13T21:45:36.951Z,57.20
2022-12-13T21:48:07.487Z,57.20
2022-12-13T21:50:38.785Z,57.00
2022-12-13T21:53:08.982Z,56.90
2022-12-13T21:55:45.579Z,57.10
2022-12-13T21:58:36.369Z,56.80
2022-12-13T22:01:07.660Z,56.80
2022-12-13T22:03:38.015Z,56.70
2022-12-13T22:06:08.563Z,56.50
2022-12-13T22:08:41.376Z,56.40
2022-12-13T22:11:21.634Z,56.40
2022-12-13T22:13:52.163Z,56.50
2022-12-13T22:16:22.449Z,56.40
2022-12-13T22:18:55.736Z,56.40
2022-12-13T22:21:26.815Z,56.40
2022-12-13T22:23:57.833Z,56.30
2022-12-13T22:26:29.036Z,56.20
2022-12-13T22:29:00.504Z,56.10
2022-12-13T22:31:31.639Z,56.00
2022-12-13T22:34:01.866Z,56.00
2022-12-13T22:36:32.428Z,56.10
2022-12-13T22:39:03.136Z,56.00
2022-12-13T22:41:33.412Z,56.00
2022-12-13T22:44:03.687Z,55.90
2022-12-13T22:46:34.706Z,55.80
2022-12-13T22:49:05.273Z,55.70
2022-12-13T22:51:36.584Z,55.60
2022-12-13T22:54:07.120Z,55.50
2022-12-13T22:56:37.452Z,55.40
2022-12-13T22:59:11.525Z,55.30
2022-12-13T23:01:47.380Z,55.20
2022-12-13T23:04:18.040Z,55.10
2022-12-13T23:06:48.222Z,55.00
2022-12-13T23:09:18.561Z,55.00
2022-12-13T23:12:06.970Z,54.90
2022-12-13T23:14:37.900Z,55.50
2022-12-13T23:17:08.155Z,54.70
2022-12-13T23:19:48.684Z,54.80
2022-12-13T23:22:25.533Z,54.70
2022-12-13T23:24:56.001Z,54.80
2022-12-13T23:27:26.976Z,54.80
2022-12-13T23:29:57.259Z,54.70
2022-12-13T23:32:27.550Z,54.50
2022-12-13T23:34:57.765Z,54.50
2022-12-13T23:37:28.214Z,54.50
2022-12-13T23:39:58.431Z,54.30
2022-12-13T23:42:31.940Z,54.20
2022-12-13T23:45:02.163Z,54.30
2022-12-13T23:47:32.601Z,54.20
2022-12-13T23:50:02.831Z,54.40
2022-12-13T23:52:33.029Z,54.30
2022-12-13T23:55:03.624Z,54.30
2022-12-13T23:57:33.798Z,54.20
